Time;durP1;ratioP1;P1;durP2;ratioP2;P2;SDS_P1;SDS_P2;PMS_P1;PMS_P2;Temp;Humidity;BMP_temperature;BMP_pressure;BME280_temperature;BME280_humidity;BME280_pressure;Samples;Min_cycle;Max_cycle;Signal;HPM_P1;HPM_P2
2022/09/04 00:01:36;;;;;;;4.90;3.17;;;18.70;99.90;;;;;;5071088;28;20063;-63
2022/09/04 00:04:20;;;;;;;4.35;3.38;;;18.60;99.90;;;;;;5062841;28;20032;-62
2022/09/04 00:07:20;;;;;;;3.85;3.40;;;18.60;99.90;;;;;;5061117;28;20042;-62
2022/09/04 00:10:10;;;;;;;4.10;3.60;;;18.60;99.90;;;;;;5070662;28;20024;-60
2022/09/04 00:13:04;;;;;;;4.85;4.03;;;18.60;99.90;;;;;;5067335;28;20090;-62
2022/09/04 00:15:35;;;;;;;4.80;3.47;;;18.50;99.90;;;;;;5041102;28;20026;-60
2022/09/04 00:18:04;;;;;;;6.78;4.28;;;18.50;99.90;;;;;;5046827;28;20534;-62
2022/09/04 00:20:36;;;;;;;5.75;4.18;;;18.60;99.90;;;;;;5042242;28;20076;-63
2022/09/04 00:23:37;;;;;;;4.30;3.88;;;18.50;99.90;;;;;;5045228;28;20033;-62
2022/09/04 00:26:45;;;;;;;4.63;3.63;;;18.50;99.90;;;;;;5041070;28;20087;-61
2022/09/04 00:29:28;;;;;;;8.75;4.10;;;18.50;99.90;;;;;;5044673;28;20115;-62
2022/09/04 00:32:17;;;;;;;6.07;3.85;;;18.50;99.90;;;;;;5037503;28;20034;-61
2022/09/04 00:35:02;;;;;;;5.45;3.70;;;18.50;99.90;;;;;;5042932;28;20033;-63
2022/09/04 00:37:40;;;;;;;6.63;4.10;;;18.60;99.90;;;;;;5043687;28;21227;-60
2022/09/04 00:40:24;;;;;;;6.00;4.38;;;18.40;99.90;;;;;;5044043;28;20029;-60
2022/09/04 00:42:50;;;;;;;6.35;3.78;;;18.30;99.90;;;;;;5043947;28;20039;-60
2022/09/04 00:45:24;;;;;;;4.35;3.85;;;18.30;99.90;;;;;;5043080;28;20033;-61
2022/09/04 00:48:08;;;;;;;6.43;4.00;;;18.20;99.90;;;;;;5038779;28;20037;-62
2022/09/04 00:50:54;;;;;;;;;;;18.20;99.90;;;;;;5045608;28;20044;-60
2022/09/04 00:53:29;;;;;;;6.03;4.05;;;18.30;99.90;;;;;;5042222;28;19935;-61
2022/09/04 00:56:30;;;;;;;4.80;4.13;;;18.20;99.90;;;;;;5047245;28;20119;-62
2022/09/04 00:59:38;;;;;;;6.13;4.07;;;18.30;99.90;;;;;;5055458;28;20090;-62
2022/09/04 01:02:42;;;;;;;5.18;3.80;;;18.20;99.90;;;;;;5038737;28;20048;-61
2022/09/04 01:05:22;;;;;;;4.65;3.33;;;18.20;99.90;;;;;;5041015;28;20598;-61
2022/09/04 01:08:06;;;;;;;4.68;3.92;;;18.20;99.90;;;;;;5036357;28;20567;-60
2022/09/04 01:10:50;;;;;;;6.63;4.18;;;18.10;99.90;;;;;;5037683;28;20242;-61
2022/09/04 01:13:40;;;;;;;;;;;18.10;99.90;;;;;;5036019;28;20167;-62
2022/09/04 01:16:12;;;;;;;4.63;4.07;;;18.20;99.90;;;;;;5036874;28;20204;-62
2022/09/04 01:18:52;;;;;;;4.97;3.78;;;18.00;99.90;;;;;;5045090;28;20402;-61
2022/09/04 01:21:29;;;;;;;4.55;3.92;;;17.90;99.90;;;;;;5043207;28;20036;-61
2022/09/04 01:24:21;;;;;;;8.25;4.10;;;18.00;99.90;;;;;;5045079;28;20063;-61
2022/09/04 01:27:01;;;;;;;6.15;5.07;;;18.00;99.90;;;;;;5042796;28;20040;-61
2022/09/04 01:29:32;;;;;;;6.50;4.18;;;18.00;99.90;;;;;;5039617;28;20029;-59
2022/09/04 01:32:28;;;;;;;4.80;4.07;;;17.90;99.90;;;;;;5044289;28;20528;-62
2022/09/04 01:35:18;;;;;;;4.38;3.95;;;17.90;99.90;;;;;;5043780;28;20037;-60
2022/09/04 01:38:13;;;;;;;4.60;4.15;;;17.90;99.90;;;;;;5044209;28;20115;-61
2022/09/04 01:41:02;;;;;;;4.57;3.95;;;17.90;99.90;;;;;;5055120;28;20476;-62
2022/09/04 01:43:28;;;;;;;6.22;3.97;;;17.80;99.90;;;;;;5064814;28;20543;-62
2022/09/04 01:46:18;;;;;;;5.70;4.18;;;17.80;99.90;;;;;;5065280;28;20029;-61
2022/09/04 01:49:07;;;;;;;5.88;4.55;;;17.80;99.90;;;;;;5038525;28;20055;-61
2022/09/04 01:51:42;;;;;;;6.00;4.65;;;17.80;99.90;;;;;;5038071;28;20750;-59
2022/09/04 01:54:34;;;;;;;5.47;4.07;;;17.80;99.90;;;;;;5042038;28;20033;-61
2022/09/04 01:57:14;;;;;;;5.22;4.63;;;17.80;99.90;;;;;;5038616;28;20404;-60
2022/09/04 01:59:51;;;;;;;5.30;4.43;;;17.80;99.90;;;;;;5063690;28;20020;-61
2022/09/04 02:02:48;;;;;;;4.95;4.30;;;17.80;99.90;;;;;;5055827;28;20051;-59
2022/09/04 02:05:21;;;;;;;6.97;4.82;;;17.70;99.90;;;;;;5061937;28;20037;-59
2022/09/04 02:08:13;;;;;;;5.18;4.60;;;17.80;99.90;;;;;;5053835;28;20549;-61
2022/09/04 02:10:48;;;;;;;5.53;4.38;;;17.70;99.90;;;;;;5061510;28;20037;-61
2022/09/04 02:13:39;;;;;;;6.38;5.25;;;17.70;99.90;;;;;;5066128;28;20056;-57
2022/09/04 02:16:13;;;;;;;6.78;5.30;;;17.70;99.90;;;;;;5072721;28;20032;-61
2022/09/04 02:19:26;;;;;;;7.50;5.18;;;17.70;99.90;;;;;;5064634;28;20036;-61
2022/09/04 02:22:17;;;;;;;6.20;5.50;;;17.70;99.90;;;;;;5043845;28;20047;-61
2022/09/04 02:25:02;;;;;;;8.65;5.72;;;17.70;99.90;;;;;;5061241;28;20430;-61
2022/09/04 02:27:35;;;;;;;5.78;5.03;;;17.60;99.90;;;;;;5061095;28;20495;-61
2022/09/04 02:30:03;;;;;;;;;;;17.70;99.90;;;;;;5066081;28;20028;-59
2022/09/04 02:33:15;;;;;;;7.72;5.75;;;17.70;99.90;;;;;;5063453;28;19954;-61
2022/09/04 02:36:08;;;;;;;7.72;6.15;;;17.60;99.90;;;;;;5043774;28;20029;-59
2022/09/04 02:38:57;;;;;;;7.53;5.70;;;17.60;99.90;;;;;;5042101;28;20037;-61
2022/09/04 02:41:49;;;;;;;8.05;5.45;;;17.50;99.90;;;;;;5040770;28;20029;-62
2022/09/04 02:44:40;;;;;;;7.68;5.57;;;17.60;99.90;;;;;;5043383;28;20049;-61
2022/09/04 02:47:29;;;;;;;6.78;6.07;;;17.60;99.90;;;;;;5036530;28;20156;-61
2022/09/04 02:50:23;;;;;;;6.15;5.55;;;17.60;99.90;;;;;;5041094;28;20480;-62
2022/09/04 02:52:58;;;;;;;9.07;6.18;;;17.60;99.90;;;;;;5010360;28;20049;-61
2022/09/04 02:55:39;;;;;;;7.22;5.97;;;17.50;99.90;;;;;;5040422;28;20043;-62
2022/09/04 02:58:27;;;;;;;6.78;6.05;;;17.50;99.90;;;;;;5043077;28;20029;-62
2022/09/04 03:01:02;;;;;;;7.15;6.00;;;17.50;99.90;;;;;;5039140;28;20029;-62
2022/09/04 03:04:00;;;;;;;6.13;5.57;;;17.50;99.90;;;;;;5040783;28;20037;-62
2022/09/04 03:06:48;;;;;;;7.85;6.50;;;17.50;99.90;;;;;;5039381;28;20628;-62
2022/09/04 03:09:30;;;;;;;6.68;6.05;;;17.30;99.90;;;;;;5032791;28;20649;-61
2022/09/04 03:12:20;;;;;;;8.70;6.32;;;17.40;99.90;;;;;;5039093;28;20040;-62
2022/09/04 03:14:53;;;;;;;6.65;5.95;;;17.30;99.90;;;;;;5041726;28;20044;-61
2022/09/04 03:17:47;;;;;;;7.20;6.13;;;17.30;99.90;;;;;;5039345;28;20468;-61
2022/09/04 03:20:25;;;;;;;7.03;5.75;;;17.40;99.90;;;;;;5038721;28;20141;-61
2022/09/04 03:23:08;;;;;;;7.78;6.50;;;17.30;99.90;;;;;;5035824;28;20298;-61
2022/09/04 03:26:02;;;;;;;7.47;6.72;;;17.20;99.90;;;;;;5041770;28;20839;-61
2022/09/04 03:28:52;;;;;;;6.88;6.18;;;17.30;99.90;;;;;;5039940;28;20055;-60
2022/09/04 03:31:40;;;;;;;9.05;6.68;;;17.30;99.90;;;;;;5037669;28;20075;-61
2022/09/04 03:34:37;;;;;;;6.93;6.13;;;17.30;99.90;;;;;;5040073;28;20041;-60
2022/09/04 03:37:11;;;;;;;8.23;6.70;;;17.30;99.90;;;;;;5039960;28;20174;-60
2022/09/04 03:39:47;;;;;;;6.88;6.18;;;17.30;99.90;;;;;;5040720;28;20056;-61
2022/09/04 03:42:43;;;;;;;8.35;6.65;;;17.40;99.90;;;;;;5037926;28;20132;-61
2022/09/04 03:45:36;;;;;;;8.15;6.70;;;17.40;99.90;;;;;;5038532;28;20029;-60
2022/09/04 03:48:20;;;;;;;7.72;6.78;;;17.30;99.90;;;;;;5038979;28;20039;-61
2022/09/04 03:50:56;;;;;;;9.32;7.32;;;17.30;99.90;;;;;;5041643;28;20174;-61
2022/09/04 03:53:46;;;;;;;8.98;7.13;;;17.30;99.90;;;;;;5040251;28;20040;-61
2022/09/04 03:56:37;;;;;;;8.85;7.55;;;17.20;99.90;;;;;;5038305;28;20029;-61
2022/09/04 03:59:11;;;;;;;10.38;7.25;;;17.30;99.90;;;;;;5042684;28;20033;-61
2022/09/04 04:02:01;;;;;;;7.50;6.80;;;17.30;99.90;;;;;;5034994;28;20036;-61
2022/09/04 04:04:45;;;;;;;8.82;6.90;;;17.20;99.90;;;;;;5059606;28;20044;-61
2022/09/04 04:08:02;;;;;;;8.10;6.90;;;17.10;99.90;;;;;;5058876;28;20039;-61
2022/09/04 04:10:39;;;;;;;8.55;7.30;;;17.10;99.90;;;;;;4995728;28;20042;-62
2022/09/04 04:13:13;;;;;;;9.15;7.72;;;17.10;99.90;;;;;;4995370;28;20517;-60
2022/09/04 04:16:00;;;;;;;10.55;7.60;;;17.10;99.90;;;;;;5041420;28;20036;-58
2022/09/04 04:18:53;;;;;;;8.65;7.75;;;17.10;99.90;;;;;;5059935;28;20064;-61
2022/09/04 04:22:03;;;;;;;8.07;7.28;;;17.00;99.90;;;;;;5060825;28;20037;-60
2022/09/04 04:25:00;;;;;;;8.20;7.30;;;16.90;99.90;;;;;;5057731;28;20036;-59
2022/09/04 04:27:51;;;;;;;9.80;7.18;;;16.90;99.90;;;;;;5065457;28;20387;-61
2022/09/04 04:30:18;;;;;;;10.27;8.20;;;16.90;99.90;;;;;;5068008;28;20514;-60
2022/09/04 04:33:07;;;;;;;8.95;8.00;;;16.90;99.90;;;;;;5065379;28;20033;-61
2022/09/04 04:35:51;;;;;;;9.35;7.35;;;17.00;99.90;;;;;;5067101;28;20036;-61
2022/09/04 04:38:43;;;;;;;10.40;7.68;;;16.90;99.90;;;;;;5066487;28;20050;-62
2022/09/04 04:41:29;;;;;;;11.77;7.32;;;16.90;99.90;;;;;;5062852;28;20064;-62
2022/09/04 04:44:15;;;;;;;9.20;8.07;;;16.80;99.90;;;;;;5065989;28;20039;-62
2022/09/04 04:47:21;;;;;;;9.57;8.57;;;16.80;99.90;;;;;;5064829;28;20474;-61
2022/09/04 04:50:02;;;;;;;11.25;8.15;;;16.90;99.90;;;;;;5065660;28;20395;-62
2022/09/04 04:52:56;;;;;;;10.32;7.90;;;16.90;99.90;;;;;;5063890;28;20503;-62
2022/09/04 04:55:31;;;;;;;9.13;8.13;;;16.90;99.90;;;;;;5065522;28;20062;-62
2022/09/04 04:58:26;;;;;;;9.73;7.70;;;16.90;99.90;;;;;;5066120;28;20029;-61
2022/09/04 05:01:11;;;;;;;9.23;7.55;;;16.90;99.90;;;;;;5063069;28;20044;-62
2022/09/04 05:03:56;;;;;;;9.00;7.95;;;16.90;99.90;;;;;;5068066;28;20031;-59
2022/09/04 05:06:35;;;;;;;9.65;8.18;;;17.00;99.90;;;;;;5062750;28;20092;-59
2022/09/04 05:09:44;;;;;;;8.90;8.00;;;16.90;99.90;;;;;;5067062;28;20558;-62
2022/09/04 05:12:35;;;;;;;9.40;7.97;;;16.90;99.90;;;;;;5057058;28;20033;-62
2022/09/04 05:15:14;;;;;;;9.20;8.18;;;16.90;99.90;;;;;;5065502;28;20024;-62
2022/09/04 05:17:45;;;;;;;9.43;8.40;;;16.90;99.90;;;;;;5040904;28;20057;-59
2022/09/04 05:20:39;;;;;;;11.40;7.85;;;17.00;99.90;;;;;;5044467;28;20033;-61
2022/09/04 05:23:34;;;;;;;9.48;8.27;;;17.10;99.90;;;;;;5040467;28;20407;-60
2022/09/04 05:26:15;;;;;;;11.32;8.45;;;17.00;99.90;;;;;;5042685;28;20037;-62
2022/09/04 05:29:16;;;;;;;9.32;8.30;;;17.00;99.90;;;;;;5044656;28;20044;-60
2022/09/04 05:32:12;;;;;;;7.93;7.13;;;17.00;99.90;;;;;;5042113;28;20037;-61
2022/09/04 05:34:53;;;;;;;10.63;8.38;;;17.00;99.90;;;;;;5042436;28;20045;-61
2022/09/04 05:37:33;;;;;;;9.40;8.40;;;17.10;99.90;;;;;;5042769;28;20416;-58
2022/09/04 05:40:05;;;;;;;11.43;8.88;;;17.10;99.90;;;;;;5044794;28;20032;-61
2022/09/04 05:42:57;;;;;;;11.73;8.93;;;17.20;99.90;;;;;;5040898;28;20171;-59
2022/09/04 05:46:02;;;;;;;10.40;8.60;;;17.20;99.90;;;;;;5025631;28;20053;-61
2022/09/04 05:48:59;;;;;;;10.45;9.30;;;17.20;99.90;;;;;;5040776;28;20059;-60
2022/09/04 05:51:35;;;;;;;12.02;9.25;;;17.30;99.90;;;;;;5014880;28;20155;-62
2022/09/04 05:54:25;;;;;;;11.00;9.50;;;17.30;99.90;;;;;;5043227;28;20433;-62
2022/09/04 05:57:14;;;;;;;11.35;9.43;;;17.30;99.90;;;;;;5042298;28;20595;-61
2022/09/04 06:00:24;;;;;;;9.73;8.73;;;17.40;99.90;;;;;;5036343;28;20097;-61
2022/09/04 06:02:59;;;;;;;12.93;9.65;;;17.50;99.90;;;;;;5041063;28;20041;-61
2022/09/04 06:05:43;;;;;;;12.65;9.73;;;17.60;99.90;;;;;;5042252;28;20059;-62
2022/09/04 06:08:23;;;;;;;10.55;8.25;;;17.50;99.90;;;;;;5036626;28;20041;-59
2022/09/04 06:10:57;;;;;;;11.35;9.82;;;17.60;99.90;;;;;;5043318;28;20040;-62
2022/09/04 06:13:32;;;;;;;13.18;9.48;;;17.80;99.90;;;;;;5036003;28;20025;-62
2022/09/04 06:16:12;;;;;;;12.27;9.38;;;17.90;99.90;;;;;;5038647;28;20511;-62
2022/09/04 06:19:18;;;;;;;12.73;9.10;;;17.90;99.90;;;;;;5039370;28;20052;-61
2022/09/04 06:22:17;;;;;;;16.00;9.45;;;18.00;99.90;;;;;;5040967;28;20764;-62
2022/09/04 06:24:53;;;;;;;11.90;9.25;;;18.20;99.90;;;;;;5041039;28;20567;-62
2022/09/04 06:27:28;;;;;;;14.50;9.40;;;18.40;99.90;;;;;;5040945;28;20143;-62
2022/09/04 06:30:14;;;;;;;14.35;8.75;;;18.40;99.90;;;;;;5044077;28;20040;-60
2022/09/04 06:33:01;;;;;;;11.88;8.27;;;18.30;99.90;;;;;;5043037;28;20676;-63
2022/09/04 06:35:33;;;;;;;10.10;8.40;;;18.30;99.90;;;;;;5056126;28;21228;-62
2022/09/04 06:38:16;;;;;;;10.25;8.15;;;18.30;99.90;;;;;;5045039;28;20128;-60
2022/09/04 06:40:58;;;;;;;10.85;8.68;;;18.50;99.90;;;;;;5046437;28;20511;-60
2022/09/04 06:43:54;;;;;;;10.90;8.18;;;18.70;99.90;;;;;;5059871;28;20066;-62
2022/09/04 06:46:44;;;;;;;12.13;8.10;;;18.80;99.90;;;;;;5056119;28;20059;-62
2022/09/04 06:49:22;;;;;;;10.05;8.18;;;18.80;99.90;;;;;;5064005;28;20521;-62
2022/09/04 06:52:32;;;;;;;12.32;8.18;;;19.30;99.90;;;;;;5060809;28;20424;-62
2022/09/04 06:55:22;;;;;;;10.57;7.90;;;18.90;99.90;;;;;;5058901;28;20392;-62
2022/09/04 06:58:04;;;;;;;11.35;7.95;;;19.10;99.90;;;;;;5053624;28;20487;-62
2022/09/04 07:00:52;;;;;;;9.27;7.20;;;19.00;99.90;;;;;;5064279;28;20046;-62
2022/09/04 07:03:54;;;;;;;8.85;7.30;;;19.00;99.90;;;;;;5062088;28;20507;-62
2022/09/04 07:06:46;;;;;;;11.35;7.40;;;19.30;99.90;;;;;;5060250;28;20039;-62
2022/09/04 07:09:20;;;;;;;8.93;7.22;;;19.30;99.90;;;;;;5061179;28;20483;-62
2022/09/04 07:12:07;;;;;;;10.73;7.72;;;19.30;99.90;;;;;;5061713;28;20508;-62
2022/09/04 07:14:52;;;;;;;10.57;7.28;;;19.50;99.90;;;;;;5067313;28;20024;-59
2022/09/04 07:17:28;;;;;;;10.70;6.90;;;19.60;99.90;;;;;;5059793;28;20032;-62
2022/09/04 07:20:14;;;;;;;9.18;6.78;;;19.60;99.90;;;;;;5062684;28;20037;-59
2022/09/04 07:23:22;;;;;;;7.45;6.45;;;19.70;99.90;;;;;;5062360;28;20526;-62
2022/09/04 07:26:25;;;;;;;6.75;5.93;;;19.80;99.90;;;;;;5037560;28;20116;-61
2022/09/04 07:29:03;;;;;;;13.10;6.10;;;19.90;99.90;;;;;;5042065;28;20488;-61
2022/09/04 07:31:37;;;;;;;7.28;5.20;;;19.80;99.90;;;;;;5053594;28;20547;-63
2022/09/04 07:34:28;;;;;;;7.75;5.35;;;19.80;99.90;;;;;;5045426;28;20029;-62
2022/09/04 07:37:22;;;;;;;7.18;5.10;;;19.90;99.90;;;;;;5038135;28;20041;-58
2022/09/04 07:39:52;;;;;;;9.38;5.50;;;19.90;99.90;;;;;;5050391;28;20156;-62
2022/09/04 07:42:28;;;;;;;7.43;5.32;;;19.90;99.90;;;;;;5055299;28;20040;-62
2022/09/04 07:45:23;;;;;;;6.93;5.38;;;20.00;99.90;;;;;;5063873;28;20056;-62
2022/09/04 07:48:01;;;;;;;8.13;5.30;;;20.10;99.90;;;;;;5057374;28;20032;-62
2022/09/04 07:50:47;;;;;;;6.60;4.78;;;20.10;99.90;;;;;;5038356;28;20111;-61
2022/09/04 07:53:25;;;;;;;8.48;4.53;;;20.20;99.90;;;;;;5040080;28;20037;-62
2022/09/04 07:55:59;;;;;;;7.60;4.03;;;20.80;99.90;;;;;;5042659;28;20035;-62
2022/09/04 07:58:30;;;;;;;10.48;4.43;;;20.60;99.90;;;;;;5044869;28;20040;-61
2022/09/04 08:01:38;;;;;;;7.65;4.40;;;20.20;99.90;;;;;;5059810;28;20033;-62
2022/09/04 08:04:16;;;;;;;6.55;4.43;;;;;;;;;;5016618;28;20061;-61
2022/09/04 08:06:52;;;;;;;6.15;3.97;;;20.70;99.90;;;;;;5041168;28;20677;-62
2022/09/04 08:09:42;;;;;;;8.10;4.03;;;20.90;99.90;;;;;;5046595;28;20056;-63
2022/09/04 08:12:36;;;;;;;5.80;3.72;;;20.90;99.90;;;;;;5038664;28;20033;-61
2022/09/04 08:15:24;;;;;;;5.72;4.10;;;21.00;99.90;;;;;;5041748;28;20272;-61
2022/09/04 08:18:10;;;;;;;5.97;3.90;;;21.00;99.90;;;;;;5042015;28;20466;-61
2022/09/04 08:21:02;;;;;;;5.93;3.50;;;21.00;99.90;;;;;;5043276;28;20025;-61
2022/09/04 08:23:56;;;;;;;4.55;3.30;;;21.10;99.90;;;;;;5042392;28;20037;-62
2022/09/04 08:26:59;;;;;;;6.38;3.60;;;21.30;99.90;;;;;;5044178;28;20120;-61
2022/09/04 08:29:53;;;;;;;7.03;4.43;;;21.40;99.90;;;;;;5042813;28;20488;-61
2022/09/04 08:32:52;;;;;;;6.05;3.53;;;21.30;99.90;;;;;;5041797;28;20052;-62
2022/09/04 08:35:41;;;;;;;5.75;3.58;;;21.40;99.90;;;;;;5042462;28;20048;-61
2022/09/04 08:38:27;;;;;;;4.53;3.38;;;21.50;99.90;;;;;;5045232;28;20112;-61
2022/09/04 08:41:14;;;;;;;4.40;3.25;;;21.60;99.90;;;;;;5042394;28;20606;-62
2022/09/04 08:44:04;;;;;;;4.47;3.30;;;21.60;99.90;;;;;;5044355;28;20492;-62
2022/09/04 08:47:03;;;;;;;4.80;3.28;;;21.60;99.90;;;;;;5040763;28;20496;-61
2022/09/04 08:50:08;;;;;;;4.47;3.50;;;21.80;99.90;;;;;;5044392;28;20424;-62
2022/09/04 08:53:11;;;;;;;6.28;3.63;;;21.90;99.90;;;;;;5044460;28;20520;-62
2022/09/04 08:56:15;;;;;;;6.40;3.50;;;21.90;99.90;;;;;;5057789;28;20029;-62
2022/09/04 08:58:53;;;;;;;7.15;3.75;;;22.00;99.90;;;;;;5020790;28;20037;-62
2022/09/04 09:01:34;;;;;;;4.30;3.00;;;22.10;99.90;;;;;;5040563;28;20061;-62
2022/09/04 09:04:12;;;;;;;5.50;2.97;;;22.10;99.90;;;;;;5042004;28;20479;-62
2022/09/04 09:07:04;;;;;;;6.28;3.35;;;22.40;99.90;;;;;;5041007;28;20030;-61
2022/09/04 09:09:57;;;;;;;3.75;2.90;;;22.20;99.90;;;;;;5043498;28;20112;-62
2022/09/04 09:12:29;;;;;;;6.53;3.03;;;22.30;99.90;;;;;;5041515;28;20025;-60
2022/09/04 09:15:17;;;;;;;4.53;3.03;;;22.40;99.90;;;;;;5045101;28;20025;-62
2022/09/04 09:18:01;;;;;;;6.40;2.67;;;22.40;99.90;;;;;;5043681;28;20028;-60
2022/09/04 09:20:34;;;;;;;5.82;2.88;;;22.60;99.90;;;;;;5040789;28;20029;-62
2022/09/04 09:23:36;;;;;;;7.47;2.97;;;22.70;99.90;;;;;;5040868;28;20036;-62
2022/09/04 09:26:32;;;;;;;42.35;4.57;;;22.70;99.90;;;;;;5042164;28;20143;-61
2022/09/04 09:29:25;;;;;;;4.70;2.78;;;22.80;99.90;;;;;;5044071;28;20055;-62
2022/09/04 09:32:19;;;;;;;4.40;2.87;;;22.90;99.90;;;;;;5043546;28;20037;-63
2022/09/04 09:35:12;;;;;;;4.40;2.72;;;22.90;99.90;;;;;;5040858;28;20120;-63
2022/09/04 09:38:19;;;;;;;9.38;4.88;;;23.10;99.90;;;;;;5043522;28;20033;-63
2022/09/04 09:40:52;;;;;;;5.28;3.58;;;23.10;99.90;;;;;;4974501;28;20421;-62
2022/09/04 09:43:26;;;;;;;6.57;3.08;;;23.10;99.90;;;;;;4975006;28;20065;-63
2022/09/04 09:46:26;;;;;;;4.68;3.00;;;23.10;99.90;;;;;;5015066;28;20033;-61
2022/09/04 09:49:32;;;;;;;6.28;3.55;;;23.10;99.90;;;;;;5046076;28;20086;-63
2022/09/04 09:52:36;;;;;;;4.55;2.88;;;23.10;99.90;;;;;;5041394;28;20523;-62
2022/09/04 09:55:11;;;;;;;4.43;3.03;;;23.30;99.90;;;;;;5035372;28;20041;-63
2022/09/04 09:57:59;;;;;;;6.25;3.22;;;23.30;99.90;;;;;;5043416;28;20033;-63
2022/09/04 10:00:41;;;;;;;3.88;2.80;;;23.40;99.90;;;;;;5040581;28;20048;-63
2022/09/04 10:03:28;;;;;;;7.75;2.85;;;23.50;99.90;;;;;;5039409;28;20122;-61
2022/09/04 10:05:56;;;;;;;5.00;2.85;;;23.60;99.90;;;;;;5040894;28;20039;-63
2022/09/04 10:08:37;;;;;;;4.90;2.85;;;23.60;99.90;;;;;;5039174;28;20036;-63
2022/09/04 10:11:35;;;;;;;4.28;2.80;;;23.60;99.90;;;;;;5037649;28;20133;-61
2022/09/04 10:14:43;;;;;;;3.58;2.55;;;23.90;99.90;;;;;;5040136;28;20025;-61
2022/09/04 10:17:52;;;;;;;4.20;2.55;;;23.80;99.90;;;;;;5040039;28;20041;-61
2022/09/04 10:20:23;;;;;;;6.13;3.28;;;23.90;99.90;;;;;;5038589;28;20041;-60
2022/09/04 10:23:12;;;;;;;5.40;2.72;;;24.00;99.90;;;;;;5043473;28;20033;-62
2022/09/04 10:25:40;;;;;;;5.25;2.70;;;23.90;99.90;;;;;;5041676;28;20067;-62
2022/09/04 10:28:34;;;;;;;6.32;2.90;;;24.10;99.90;;;;;;5043494;28;20029;-61
2022/09/04 10:31:12;;;;;;;;;;;24.10;99.90;;;;;;5039949;28;20036;-61
2022/09/04 10:33:43;;;;;;;5.03;2.55;;;24.10;99.90;;;;;;5060408;28;19938;-61
2022/09/04 10:36:44;;;;;;;2.97;2.60;;;24.10;99.90;;;;;;5067285;28;20323;-60
2022/09/04 10:42:29;;;;;;;4.82;2.63;;;24.50;99.90;;;;;;5065991;28;20040;-61
2022/09/04 10:45:08;;;;;;;2.85;2.10;;;24.40;99.90;;;;;;5063057;28;20032;-62
2022/09/04 10:48:11;;;;;;;4.30;1.90;;;24.50;99.90;;;;;;5077090;28;20047;-60
2022/09/04 10:51:01;;;;;;;9.32;2.17;;;24.60;99.90;;;;;;5060362;28;20115;-61
2022/09/04 10:53:51;;;;;;;4.53;2.60;;;24.50;99.90;;;;;;5061684;28;20032;-61
2022/09/04 10:56:29;;;;;;;4.78;2.40;;;24.50;99.90;;;;;;5065706;28;20032;-62
2022/09/04 10:59:04;;;;;;;3.28;2.25;;;24.50;99.90;;;;;;5062392;28;20471;-62
2022/09/04 11:01:53;;;;;;;5.25;2.35;;;24.40;99.90;;;;;;5062706;28;20048;-61
2022/09/04 11:04:35;;;;;;;6.10;2.20;;;24.40;99.90;;;;;;5061020;28;20021;-61
2022/09/04 11:07:33;;;;;;;3.47;2.40;;;24.50;99.90;;;;;;5054929;28;20514;-62
2022/09/04 11:10:17;;;;;;;3.90;2.42;;;24.60;99.90;;;;;;5058686;28;20033;-62
2022/09/04 11:13:00;;;;;;;6.18;2.40;;;24.70;99.90;;;;;;5066699;28;20033;-61
2022/09/04 11:15:46;;;;;;;3.92;2.40;;;24.70;99.90;;;;;;5063309;28;20040;-62
2022/09/04 11:18:24;;;;;;;2.63;2.00;;;24.70;99.90;;;;;;5056976;28;20682;-62
2022/09/04 11:20:55;;;;;;;4.88;2.00;;;24.80;99.90;;;;;;5062318;28;20039;-62
2022/09/04 11:23:47;;;;;;;5.00;2.00;;;24.90;99.90;;;;;;5060249;28;20032;-62
2022/09/04 11:26:47;;;;;;;4.60;1.70;;;24.90;99.90;;;;;;5075458;28;20070;-60
2022/09/04 11:29:58;;;;;;;3.00;1.90;;;24.90;99.90;;;;;;5061607;28;20046;-63
2022/09/04 11:32:33;;;;;;;4.20;2.05;;;25.00;99.90;;;;;;5061152;28;20509;-61
2022/09/04 11:35:21;;;;;;;4.10;1.67;;;25.00;99.90;;;;;;5063779;28;20029;-62
2022/09/04 11:38:07;;;;;;;1.75;1.38;;;25.10;99.90;;;;;;5045001;28;20048;-62
2022/09/04 11:40:35;;;;;;;4.88;1.60;;;25.10;99.90;;;;;;5042893;28;20040;-62
2022/09/04 11:43:21;;;;;;;6.65;1.60;;;25.10;99.90;;;;;;5044487;28;20094;-60
2022/09/04 11:45:57;;;;;;;2.03;1.40;;;25.10;99.90;;;;;;5045102;28;20590;-62
2022/09/04 11:48:40;;;;;;;4.32;1.40;;;25.20;99.90;;;;;;5044242;28;20047;-62
2022/09/04 11:51:38;;;;;;;2.35;1.50;;;25.20;99.90;;;;;;5044015;28;20488;-62
2022/09/04 11:54:16;;;;;;;2.88;1.63;;;25.20;99.90;;;;;;5049249;28;20511;-63
2022/09/04 11:56:55;;;;;;;3.10;1.70;;;25.20;99.90;;;;;;5044985;28;20368;-63
2022/09/04 11:59:39;;;;;;;3.00;1.80;;;25.30;99.90;;;;;;5045124;28;20033;-62
2022/09/04 12:02:17;;;;;;;2.80;1.65;;;25.30;99.90;;;;;;5043256;28;20041;-60
2022/09/04 12:05:11;;;;;;;3.47;1.40;;;25.30;99.90;;;;;;5042068;28;20266;-62
2022/09/04 12:07:51;;;;;;;2.67;1.70;;;25.30;99.90;;;;;;5039594;28;20596;-62
2022/09/04 12:10:28;;;;;;;20.10;17.63;;;25.30;99.90;;;;;;5042766;28;20430;-62
2022/09/04 12:13:13;;;;;;;11.15;8.32;;;25.40;99.90;;;;;;5044421;28;20039;-61
2022/09/04 12:16:01;;;;;;;2.05;1.67;;;25.40;99.90;;;;;;5041775;28;20170;-62
2022/09/04 12:18:57;;;;;;;2.22;1.60;;;25.50;99.90;;;;;;5043248;28;20063;-61
2022/09/04 12:21:41;;;;;;;3.92;1.65;;;25.40;99.90;;;;;;5046996;28;20439;-61
2022/09/04 12:24:48;;;;;;;2.97;1.50;;;25.50;99.90;;;;;;5046393;28;20033;-61
2022/09/04 12:27:41;;;;;;;2.30;1.40;;;25.50;99.90;;;;;;5043282;28;20049;-62
2022/09/04 12:30:22;;;;;;;3.17;1.30;;;25.60;99.90;;;;;;5044720;28;20029;-62
2022/09/04 12:33:09;;;;;;;3.65;2.13;;;25.70;99.90;;;;;;5038900;28;20052;-61
2022/09/04 12:36:13;;;;;;;3.60;1.60;;;25.70;99.90;;;;;;5043910;28;20056;-61
2022/09/04 12:39:20;;;;;;;2.22;1.83;;;25.80;99.90;;;;;;5034771;28;20352;-62
2022/09/04 12:42:14;;;;;;;1.90;1.13;;;25.80;99.90;;;;;;5002134;28;20092;-61
2022/09/04 12:45:01;;;;;;;3.55;1.70;;;26.10;99.90;;;;;;4999808;28;20406;-60
2022/09/04 12:47:35;;;;;;;2.15;1.50;;;26.10;99.90;;;;;;5037417;28;20040;-61
2022/09/04 12:50:14;;;;;;;2.15;1.50;;;26.20;99.90;;;;;;5043310;28;20087;-61
2022/09/04 12:52:49;;;;;;;2.40;1.30;;;26.20;99.90;;;;;;5041980;28;20033;-61
2022/09/04 12:55:29;;;;;;;3.97;1.30;;;26.30;99.90;;;;;;5044222;28;20052;-62
2022/09/04 12:58:30;;;;;;;2.08;1.60;;;26.40;99.90;;;;;;5040385;28;20040;-61
2022/09/04 13:01:22;;;;;;;2.92;1.30;;;26.40;99.90;;;;;;5056946;28;20085;-62
2022/09/04 13:04:13;;;;;;;1.90;1.20;;;26.40;99.90;;;;;;5042937;28;20033;-61
2022/09/04 13:06:52;;;;;;;2.08;1.20;;;26.50;99.90;;;;;;5029222;28;20387;-61
2022/09/04 13:09:41;;;;;;;1.85;1.20;;;26.50;99.90;;;;;;5039855;28;20494;-61
2022/09/04 13:12:07;;;;;;;3.17;1.20;;;26.40;99.90;;;;;;5012845;28;20408;-61
2022/09/04 13:14:41;;;;;;;2.88;1.20;;;26.40;99.90;;;;;;5043119;28;20025;-59
2022/09/04 13:17:22;;;;;;;2.30;1.30;;;26.40;99.90;;;;;;5040894;28;20090;-61
2022/09/04 13:20:00;;;;;;;2.17;1.30;;;26.30;99.90;;;;;;5044322;28;20040;-61
2022/09/04 13:22:57;;;;;;;1.83;1.05;;;26.30;99.90;;;;;;5037799;28;20629;-60
2022/09/04 13:26:04;;;;;;;1.38;1.20;;;26.20;99.90;;;;;;5038891;28;20029;-61
2022/09/04 13:28:53;;;;;;;1.80;1.30;;;26.20;99.90;;;;;;5028639;28;20063;-60
2022/09/04 13:31:18;;;;;;;2.85;1.00;;;26.20;99.90;;;;;;5041539;28;20037;-61
2022/09/04 13:34:14;;;;;;;3.17;1.20;;;26.20;99.90;;;;;;5038928;28;20032;-61
2022/09/04 13:37:03;;;;;;;2.10;1.40;;;26.40;99.90;;;;;;5044363;28;20503;-61
2022/09/04 13:40:13;;;;;;;5.75;1.40;;;26.40;99.90;;;;;;5040382;28;20514;-61
2022/09/04 13:42:53;;;;;;;2.17;1.48;;;26.40;99.90;;;;;;5032919;28;20128;-59
2022/09/04 13:45:24;;;;;;;4.95;1.63;;;26.40;99.90;;;;;;5040948;28;20514;-61
2022/09/04 13:48:15;;;;;;;2.72;1.33;;;26.30;99.90;;;;;;5045123;28;20159;-61
2022/09/04 13:50:45;;;;;;;2.85;1.30;;;26.40;99.90;;;;;;5040850;28;20048;-61
2022/09/04 13:53:33;;;;;;;3.35;1.58;;;26.40;99.90;;;;;;5042264;28;20121;-61
2022/09/04 13:56:11;;;;;;;3.67;1.40;;;26.40;99.90;;;;;;5041608;28;20366;-61
2022/09/04 13:58:40;;;;;;;1.65;1.35;;;26.40;99.90;;;;;;5043450;28;20030;-61
2022/09/04 14:01:14;;;;;;;2.67;1.52;;;26.30;99.90;;;;;;5041331;28;20045;-61
2022/09/04 14:03:45;;;;;;;;;;;26.30;99.90;;;;;;5045345;28;20411;-62
2022/09/04 14:06:15;;;;;;;4.85;1.50;;;26.40;99.90;;;;;;5035889;28;19919;-59
2022/09/04 14:08:43;;;;;;;2.10;1.58;;;26.50;99.90;;;;;;5043650;28;20041;-60
2022/09/04 14:11:29;;;;;;;2.42;1.40;;;26.40;99.90;;;;;;5042346;28;20071;-61
2022/09/04 14:14:42;;;;;;;92.07;82.47;;;26.40;99.90;;;;;;5039459;28;20033;-62
2022/09/04 14:17:08;;;;;;;11.98;10.57;;;26.40;99.90;;;;;;5036904;28;20915;-64
2022/09/04 14:19:44;;;;;;;10.60;7.43;;;26.40;99.90;;;;;;5041793;28;20630;-61
2022/09/04 14:22:15;;;;;;;3.03;1.88;;;26.40;99.90;;;;;;5042241;28;20029;-60
2022/09/04 14:25:09;;;;;;;2.90;1.40;;;26.50;99.90;;;;;;5040161;28;20029;-62
2022/09/04 14:28:05;;;;;;;3.15;1.60;;;26.40;99.90;;;;;;5038664;28;20471;-62